Time;durP1;ratioP1;P1;durP2;ratioP2;P2;SDS_P1;SDS_P2;PMS_P1;PMS_P2;Temp;Humidity;BMP_temperature;BMP_pressure;BME280_temperature;BME280_humidity;BME280_pressure;Samples;Min_cycle;Max_cycle;Signal;HPM_P1;HPM_P2
2023/10/21 00:01:16;;;;;;;2.70;1.77;;;;;;;6.65;100.00;98909.09;6200615;28;20233;-71
2023/10/21 00:04:37;;;;;;;2.07;1.90;;;;;;;6.58;100.00;98910.72;6191575;28;20229;-71
2023/10/21 00:07:59;;;;;;;1.50;1.40;;;;;;;6.54;100.00;98918.22;6205316;28;20240;-71
2023/10/21 00:11:20;;;;;;;1.93;1.83;;;;;;;6.60;100.00;98927.44;6205404;28;20271;-71
2023/10/21 00:14:41;;;;;;;3.47;2.43;;;;;;;6.65;100.00;98917.97;6197917;28;20340;-70
2023/10/21 00:18:02;;;;;;;3.17;1.90;;;;;;;6.48;100.00;98929.56;6203885;28;20614;-71
2023/10/21 00:21:23;;;;;;;2.10;1.90;;;;;;;6.55;100.00;98919.88;6201655;28;20229;-71
2023/10/21 00:24:45;;;;;;;1.83;1.73;;;;;;;6.57;100.00;98928.59;6195190;28;20780;-71
2023/10/21 00:28:06;;;;;;;5.47;3.57;;;;;;;6.68;100.00;98930.16;6198626;28;20233;-71
2023/10/21 00:31:27;;;;;;;2.80;2.60;;;;;;;6.70;100.00;98928.16;6200315;28;20237;-70
2023/10/21 00:34:49;;;;;;;2.33;1.87;;;;;;;6.47;100.00;98939.44;6197697;28;20246;-70
2023/10/21 00:38:10;;;;;;;4.70;2.20;;;;;;;6.54;100.00;98931.59;6204625;28;20787;-71
2023/10/21 00:41:32;;;;;;;3.07;2.73;;;;;;;6.56;100.00;98940.31;6209379;28;20287;-71
2023/10/21 00:44:53;;;;;;;2.97;2.37;;;;;;;6.58;100.00;98941.00;6206238;28;20237;-71
2023/10/21 00:48:14;;;;;;;2.73;2.53;;;;;;;6.61;100.00;98951.41;6197490;28;20233;-70
2023/10/21 00:51:36;;;;;;;2.13;1.93;;;;;;;6.60;100.00;98940.84;6200737;28;20562;-71
2023/10/21 00:54:59;;;;;;;3.33;3.03;;;;;;;6.64;100.00;98956.41;6195295;28;20614;-71
2023/10/21 00:58:22;;;;;;;3.03;2.73;;;;;;;6.73;100.00;98954.63;6197532;28;20257;-71
2023/10/21 01:01:43;;;;;;;4.20;2.83;;;;;;;6.77;100.00;98951.47;6203087;28;20245;-71
2023/10/21 01:05:05;;;;;;;3.17;2.63;;;;;;;6.68;100.00;98973.84;6201436;28;20229;-72
2023/10/21 01:08:25;;;;;;;4.20;3.23;;;;;;;6.68;100.00;98976.53;6197717;28;20236;-72
2023/10/21 01:11:46;;;;;;;3.87;3.57;;;;;;;6.72;100.00;98980.56;6203122;28;20233;-72
2023/10/21 01:15:10;;;;;;;2.90;2.70;;;;;;;6.72;100.00;98979.72;6192948;28;20229;-70
2023/10/21 01:18:34;;;;;;;3.03;2.00;;;;;;;6.67;100.00;98982.91;6205957;28;20245;-70
2023/10/21 01:21:56;;;;;;;4.20;3.10;;;;;;;6.68;100.00;98976.53;6196345;28;20232;-71
2023/10/21 01:25:19;;;;;;;2.97;2.77;;;;;;;6.64;100.00;98974.31;6199619;28;20244;-72
2023/10/21 01:28:40;;;;;;;4.00;2.73;;;;;;;6.71;100.00;98967.34;6205987;28;20245;-71
2023/10/21 01:32:01;;;;;;;4.47;3.40;;;;;;;6.69;100.00;98972.88;6198878;28;20256;-71
2023/10/21 01:35:22;;;;;;;5.07;3.47;;;;;;;6.71;100.00;98962.84;6199963;28;20233;-71
2023/10/21 01:38:43;;;;;;;4.20;3.70;;;;;;;6.78;100.00;98974.56;6204207;28;20232;-70
2023/10/21 01:42:06;;;;;;;4.60;3.20;;;;;;;6.76;100.00;98967.72;6200602;28;20504;-71
2023/10/21 01:45:26;;;;;;;3.97;3.43;;;;;;;6.81;100.00;98973.41;6203395;28;20234;-70
2023/10/21 01:48:49;;;;;;;4.87;4.17;;;;;;;6.84;100.00;98962.41;6204657;28;20233;-71
2023/10/21 01:52:11;;;;;;;4.07;2.93;;;;;;;6.87;100.00;98960.22;6206856;28;20674;-70
2023/10/21 01:55:33;;;;;;;3.50;3.20;;;;;;;6.90;100.00;98964.44;6207069;28;20237;-71
2023/10/21 01:58:57;;;;;;;4.13;3.77;;;;;;;6.91;100.00;98966.09;6201347;28;20237;-71
2023/10/21 02:02:18;;;;;;;5.33;4.83;;;;;;;6.93;100.00;98982.84;6202108;28;20230;-71
2023/10/21 02:05:39;;;;;;;4.63;4.13;;;;;;;6.91;100.00;98976.81;6215359;28;20243;-72
2023/10/21 02:09:00;;;;;;;4.03;3.70;;;;;;;6.88;100.00;98983.34;6205419;28;20257;-71
2023/10/21 02:12:21;;;;;;;6.23;4.97;;;;;;;6.93;100.00;98990.88;6207031;28;21851;-70
2023/10/21 02:15:44;;;;;;;5.60;3.93;;;;;;;6.94;100.00;98996.09;6202345;28;20237;-71
2023/10/21 02:19:05;;;;;;;5.33;4.70;;;;;;;6.93;100.00;99010.47;6209094;28;20224;-71
2023/10/21 02:22:27;;;;;;;5.67;4.10;;;;;;;6.92;100.00;99016.84;6204363;28;20261;-71
2023/10/21 02:25:48;;;;;;;4.83;4.33;;;;;;;6.82;100.00;99009.94;6201837;28;20249;-71
2023/10/21 02:29:09;;;;;;;5.93;4.73;;;;;;;6.83;100.00;99014.25;6189434;28;20312;-71
2023/10/21 02:32:31;;;;;;;5.27;4.77;;;;;;;6.86;100.00;99019.31;6200291;28;20230;-71
2023/10/21 02:35:53;;;;;;;5.57;4.57;;;;;;;6.95;100.00;99032.59;6202746;28;20236;-71
2023/10/21 02:39:16;;;;;;;5.40;4.90;;;;;;;6.75;100.00;99038.31;6203926;28;20232;-71
2023/10/21 02:42:37;;;;;;;6.17;4.70;;;;;;;6.86;100.00;99038.06;6204376;28;20226;-70
2023/10/21 02:46:07;;;;;;;5.60;4.97;;;;;;;6.84;100.00;99038.19;6204239;28;20237;-71
2023/10/21 02:49:29;;;;;;;7.93;6.40;;;;;;;6.83;100.00;99033.84;6204616;28;20514;-71
2023/10/21 02:52:51;;;;;;;6.57;5.27;;;;;;;6.87;100.00;99042.41;6203243;28;20234;-71
2023/10/21 02:56:13;;;;;;;11.13;6.33;;;;;;;6.80;100.00;99039.53;6202654;28;20233;-71
2023/10/21 02:59:35;;;;;;;7.37;5.67;;;;;;;6.85;100.00;99039.06;6203488;28;20524;-72
2023/10/21 03:02:56;;;;;;;5.60;4.97;;;;;;;6.87;100.00;99039.72;6203923;28;20253;-71
2023/10/21 03:06:21;;;;;;;8.23;5.73;;;;;;;6.94;100.00;99038.97;6200631;28;20234;-71
2023/10/21 03:09:42;;;;;;;8.13;6.13;;;;;;;6.86;100.00;99036.19;6199602;28;20341;-71
2023/10/21 03:13:03;;;;;;;6.87;6.07;;;;;;;6.86;100.00;99022.81;6204575;28;20232;-71
2023/10/21 03:16:24;;;;;;;6.50;5.57;;;;;;;6.81;100.00;99041.22;6199277;28;20234;-71
2023/10/21 03:19:45;;;;;;;8.07;6.50;;;;;;;6.91;100.00;99025.03;6199914;28;20245;-71
2023/10/21 03:23:07;;;;;;;8.80;5.60;;;;;;;6.97;100.00;99021.72;6202123;28;20595;-71
2023/10/21 03:26:28;;;;;;;8.93;5.67;;;;;;;7.02;100.00;99027.44;6202380;28;20241;-71
2023/10/21 03:29:49;;;;;;;5.63;5.10;;;;;;;7.04;100.00;99038.84;6206234;28;20228;-71
2023/10/21 03:33:10;;;;;;;6.07;5.03;;;;;;;7.07;100.00;99028.63;6202803;28;20237;-71
2023/10/21 03:36:31;;;;;;;7.30;6.07;;;;;;;7.00;100.00;99024.94;6202241;28;20230;-71
2023/10/21 03:39:54;;;;;;;7.53;6.93;;;;;;;7.05;100.00;99032.50;6210425;28;20704;-71
2023/10/21 03:43:14;;;;;;;7.00;5.63;;;;;;;7.11;100.00;99030.00;6202327;28;20237;-71
2023/10/21 03:46:36;;;;;;;8.50;6.60;;;;;;;7.15;100.00;99026.00;6200686;28;20252;-72
2023/10/21 03:49:58;;;;;;;9.37;7.23;;;;;;;7.15;100.00;99038.56;6198712;28;20245;-72
2023/10/21 03:53:19;;;;;;;8.77;6.67;;;;;;;7.08;100.00;99037.50;6206495;28;20567;-71
2023/10/21 03:56:41;;;;;;;7.07;6.37;;;;;;;7.14;100.00;99045.75;6203509;28;20268;-72
2023/10/21 04:00:05;;;;;;;6.83;5.67;;;;;;;7.13;100.00;99043.25;6198846;28;20240;-71
2023/10/21 04:03:33;;;;;;;9.23;6.97;;;;;;;7.17;100.00;99049.97;6205847;28;20229;-71
2023/10/21 04:06:54;;;;;;;8.13;7.00;;;;;;;7.13;100.00;99038.72;6201202;28;20237;-71
2023/10/21 04:10:14;;;;;;;6.80;5.33;;;;;;;7.15;100.00;99051.97;6200587;28;20689;-71
2023/10/21 04:13:37;;;;;;;7.80;5.20;;;;;;;7.16;100.00;99067.88;6198740;28;20229;-71
2023/10/21 04:16:57;;;;;;;10.83;5.77;;;;;;;7.02;100.00;99065.78;6202878;28;20233;-71
2023/10/21 04:20:18;;;;;;;7.43;5.30;;;;;;;7.12;100.00;99063.84;6200348;28;20249;-71
2023/10/21 04:23:39;;;;;;;7.70;6.97;;;;;;;7.17;100.00;99074.09;6204494;28;20599;-71
2023/10/21 04:27:00;;;;;;;9.03;7.03;;;;;;;7.14;100.00;99071.72;6200760;28;20233;-71
2023/10/21 04:30:23;;;;;;;7.40;5.40;;;;;;;7.14;100.00;99082.41;6206290;28;20355;-71
2023/10/21 04:33:45;;;;;;;6.17;5.47;;;;;;;7.20;100.00;99081.78;6203241;28;20316;-71
2023/10/21 04:37:06;;;;;;;7.37;6.33;;;;;;;7.17;100.00;99079.44;6203759;28;20225;-71
2023/10/21 04:40:26;;;;;;;10.77;5.77;;;;;;;7.23;100.00;99073.44;6204477;28;21866;-71
2023/10/21 04:43:47;;;;;;;5.53;5.03;;;;;;;7.28;100.00;99071.94;6196881;28;20225;-71
2023/10/21 04:47:10;;;;;;;8.90;6.00;;;;;;;7.25;100.00;99066.94;6184581;28;20315;-71
2023/10/21 04:50:31;;;;;;;6.73;5.93;;;;;;;7.30;100.00;99063.78;6200097;28;20233;-71
2023/10/21 04:53:52;;;;;;;9.73;6.47;;;;;;;7.25;100.00;99079.47;6198353;28;20222;-71
2023/10/21 04:57:13;;;;;;;7.43;6.43;;;;;;;7.30;100.00;99087.91;6197140;28;20230;-71
2023/10/21 05:00:33;;;;;;;7.53;5.33;;;;;;;7.20;100.00;99082.63;6201071;28;20817;-71
2023/10/21 05:03:56;;;;;;;5.43;4.93;;;;;;;7.30;100.00;99087.91;6198470;28;20233;-71
2023/10/21 05:07:17;;;;;;;6.73;6.03;;;;;;;7.31;100.00;99084.19;6196699;28;20638;-71
2023/10/21 05:10:38;;;;;;;5.50;4.90;;;;;;;7.28;100.00;99089.06;6203502;28;20493;-71
2023/10/21 05:13:59;;;;;;;6.83;5.50;;;;;;;7.31;100.00;99102.13;6204457;28;20229;-71
2023/10/21 05:17:20;;;;;;;6.97;6.37;;;;;;;7.32;100.00;99107.34;6205754;28;20240;-71
2023/10/21 05:20:43;;;;;;;8.33;6.37;;;;;;;7.22;100.00;99118.16;6208786;28;20328;-71
2023/10/21 05:24:04;;;;;;;9.23;6.27;;;;;;;7.26;100.00;99115.97;6205461;28;20233;-71
2023/10/21 05:27:25;;;;;;;10.13;6.77;;;;;;;7.35;100.00;99114.19;6206940;28;20229;-71
2023/10/21 05:30:46;;;;;;;8.17;7.47;;;;;;;7.28;100.00;99123.88;6204360;28;20233;-71
2023/10/21 05:34:07;;;;;;;6.97;6.30;;;;;;;7.42;100.00;99117.94;6202012;28;20233;-71
2023/10/21 05:37:31;;;;;;;7.17;6.23;;;;;;;7.47;100.00;99132.53;6203942;28;20225;-71
2023/10/21 05:40:53;;;;;;;7.73;6.50;;;;;;;7.48;100.00;99130.69;6200776;28;20233;-70
2023/10/21 05:44:13;;;;;;;6.53;5.27;;;;;;;7.56;100.00;99136.09;6196058;28;20531;-70
2023/10/21 05:47:36;;;;;;;8.30;6.60;;;;;;;7.49;100.00;99146.59;6203053;28;20304;-71
2023/10/21 05:51:00;;;;;;;7.10;6.47;;;;;;;7.55;100.00;99145.16;6210750;28;20229;-71
2023/10/21 05:54:22;;;;;;;6.70;6.00;;;;;;;7.52;100.00;99157.03;6210704;28;20327;-71
2023/10/21 05:57:44;;;;;;;6.37;5.20;;;;;;;7.56;100.00;99152.19;6207419;28;20590;-71
2023/10/21 06:01:08;;;;;;;7.73;7.03;;;;;;;7.63;100.00;99163.97;6197762;28;20229;-71
2023/10/21 06:04:31;;;;;;;6.87;6.17;;;;;;;7.55;100.00;99171.97;6201373;28;20233;-71
2023/10/21 06:07:52;;;;;;;7.43;6.70;;;;;;;7.62;100.00;99164.94;6202327;28;20674;-70
2023/10/21 06:11:14;;;;;;;5.67;5.17;;;;;;;7.63;100.00;99163.97;6198955;28;20234;-71
2023/10/21 06:14:35;;;;;;;7.97;5.70;;;;;;;7.60;100.00;99162.44;6210957;28;20657;-70
2023/10/21 06:17:57;;;;;;;6.47;5.83;;;;;;;7.67;100.00;99166.16;6206287;28;20233;-71
2023/10/21 06:21:18;;;;;;;6.77;6.17;;;;;;;7.72;100.00;99176.38;6201688;28;20245;-71
2023/10/21 06:24:39;;;;;;;9.77;7.27;;;;;;;7.71;100.00;99188.13;6202401;28;20224;-71
2023/10/21 06:28:01;;;;;;;5.37;4.90;;;;;;;7.75;100.00;99189.50;6202324;28;20234;-71
2023/10/21 06:31:22;;;;;;;6.27;4.50;;;;;;;7.75;100.00;99198.38;6203096;28;20226;-70
2023/10/21 06:34:43;;;;;;;6.80;5.93;;;;;;;7.86;100.00;99203.44;6199803;28;20229;-70
2023/10/21 06:38:05;;;;;;;8.87;7.40;;;;;;;7.70;100.00;99206.06;6206836;28;20584;-70
2023/10/21 06:41:25;;;;;;;6.37;5.40;;;;;;;7.64;100.00;99212.06;6200637;28;20233;-71
2023/10/21 06:44:47;;;;;;;6.07;4.63;;;;;;;7.74;100.00;99209.28;6203437;28;20237;-71
2023/10/21 06:48:08;;;;;;;6.33;5.43;;;;;;;7.82;100.00;99226.25;6204815;28;20229;-70
2023/10/21 06:51:30;;;;;;;7.03;5.80;;;;;;;7.88;100.00;99228.31;6203784;28;20246;-70
2023/10/21 06:54:51;;;;;;;7.13;6.43;;;;;;;7.93;100.00;99225.13;6205969;28;20233;-71
2023/10/21 06:58:12;;;;;;;5.70;5.10;;;;;;;7.93;100.00;99228.66;6205430;28;20240;-70
2023/10/21 07:01:35;;;;;;;5.57;4.70;;;;;;;7.95;100.00;99240.06;6204194;28;20311;-70
2023/10/21 07:04:56;;;;;;;6.03;5.33;;;;;;;7.93;100.00;99255.47;6202807;28;20221;-70
2023/10/21 07:08:17;;;;;;;5.97;5.37;;;;;;;7.93;100.00;99257.31;6208139;28;20233;-70
2023/10/21 07:11:38;;;;;;;5.67;5.17;;;;;;;7.98;100.00;99261.22;6203942;28;20226;-70
2023/10/21 07:14:59;;;;;;;5.80;5.10;;;;;;;8.00;100.00;99267.28;6199162;28;20237;-71
2023/10/21 07:18:22;;;;;;;5.60;5.17;;;;;;;8.03;100.00;99264.25;6201457;28;20236;-71
2023/10/21 07:21:43;;;;;;;5.57;5.17;;;;;;;7.91;100.00;99267.38;6189996;28;20276;-70
2023/10/21 07:25:05;;;;;;;5.77;5.23;;;;;;;7.99;100.00;99268.25;6211321;28;20237;-70
2023/10/21 07:28:26;;;;;;;6.17;5.57;;;;;;;8.03;100.00;99272.31;6202995;28;20233;-70
2023/10/21 07:31:47;;;;;;;6.87;5.37;;;;;;;8.08;100.00;99286.09;6202580;28;20233;-71
2023/10/21 07:35:10;;;;;;;4.67;4.27;;;;;;;8.09;100.00;99290.44;6202857;28;20232;-69
2023/10/21 07:38:31;;;;;;;5.33;4.83;;;;;;;8.22;100.00;99286.50;6202479;28;20229;-71
2023/10/21 07:41:53;;;;;;;5.97;4.90;;;;;;;8.27;100.00;99292.25;6197937;28;20240;-71
2023/10/21 07:45:15;;;;;;;6.63;6.03;;;;;;;8.38;100.00;99295.50;6203321;28;20273;-70
2023/10/21 07:48:39;;;;;;;4.77;3.97;;;;;;;8.47;100.00;99297.22;6202840;28;20233;-70
2023/10/21 07:52:03;;;;;;;5.57;4.67;;;;;;;8.48;100.00;99306.97;6200713;28;20240;-71
2023/10/21 07:55:24;;;;;;;6.47;5.30;;;;;;;8.56;100.00;99316.88;6200824;28;20237;-71
2023/10/21 07:58:45;;;;;;;5.40;4.80;;;;;;;8.57;100.00;99316.72;6207537;28;20332;-72
2023/10/21 08:02:06;;;;;;;4.97;3.80;;;;;;;8.65;100.00;99314.09;6208420;28;20256;-70
2023/10/21 08:05:28;;;;;;;4.43;4.10;;;;;;;8.66;100.00;99313.06;6192572;28;20229;-71
2023/10/21 08:08:50;;;;;;;4.53;4.07;;;;;;;8.65;100.00;99323.97;6199951;28;20229;-71
2023/10/21 08:12:11;;;;;;;5.00;4.50;;;;;;;8.62;100.00;99326.97;6204029;28;20241;-71
2023/10/21 08:15:32;;;;;;;4.00;3.60;;;;;;;8.66;100.00;99328.34;6195090;28;20237;-73
2023/10/21 08:18:53;;;;;;;4.07;3.67;;;;;;;8.70;100.00;99329.69;6202935;28;20229;-73
2023/10/21 08:22:14;;;;;;;4.20;3.90;;;;;;;8.71;100.00;99339.44;6203268;28;20240;-73
2023/10/21 08:25:36;;;;;;;5.20;3.57;;;;;;;8.72;100.00;99335.75;6202327;28;20233;-72
2023/10/21 08:28:58;;;;;;;4.00;3.57;;;;;;;8.83;100.00;99339.00;6209946;28;20252;-73
2023/10/21 08:32:19;;;;;;;4.17;3.87;;;;;;;8.79;100.00;99342.16;6209894;28;20257;-73
2023/10/21 08:35:40;;;;;;;3.33;3.03;;;;;;;8.81;100.00;99341.00;6206177;28;20635;-73
2023/10/21 08:39:02;;;;;;;3.10;2.90;;;;;;;8.85;100.00;99342.34;6197104;28;20709;-73
2023/10/21 08:42:26;;;;;;;2.83;2.63;;;;;;;8.89;100.00;99345.53;6204652;28;20232;-73
2023/10/21 08:45:47;;;;;;;3.13;2.93;;;;;;;8.88;100.00;99349.25;6206527;28;20230;-73
2023/10/21 08:49:11;;;;;;;2.80;2.60;;;;;;;8.80;100.00;99357.28;6208359;28;20238;-73
2023/10/21 08:52:34;;;;;;;3.13;2.93;;;;;;;8.77;100.00;99358.44;6210452;28;20225;-73
2023/10/21 08:55:54;;;;;;;2.97;2.73;;;;;;;8.88;100.00;99360.00;6205487;28;20623;-72
2023/10/21 08:59:17;;;;;;;3.97;3.57;;;;;;;8.88;100.00;99364.53;6212162;28;20242;-72
2023/10/21 09:02:39;;;;;;;3.30;3.00;;;;;;;8.96;100.00;99376.16;6197401;28;20233;-73
2023/10/21 09:06:05;;;;;;;3.20;2.90;;;;;;;9.07;100.00;99386.63;6199819;28;20347;-72
2023/10/21 09:09:27;;;;;;;2.80;2.60;;;;;;;9.09;100.00;99389.13;6199371;28;20233;-73
2023/10/21 09:12:49;;;;;;;3.37;2.70;;;;;;;9.10;100.00;99393.50;6210499;28;20221;-72
2023/10/21 09:16:22;;;;;;;3.37;3.17;;;;;;;9.06;100.00;99397.50;6207025;28;20248;-71
2023/10/21 09:19:43;;;;;;;3.67;3.37;;;;;;;8.85;100.00;99395.25;6206932;28;20253;-72
2023/10/21 09:23:05;;;;;;;18.67;14.63;;;;;;;9.65;100.00;99410.78;6203661;28;20547;-73
2023/10/21 09:26:32;;;;;;;22.73;18.77;;;;;;;10.34;100.00;99407.59;6199367;28;20229;-69
2023/10/21 09:29:53;;;;;;;30.70;26.30;;;;;;;10.44;100.00;99409.09;6204637;28;20229;-71
2023/10/21 09:33:15;;;;;;;7.87;7.23;;;;;;;10.45;100.00;99420.72;6208117;28;20772;-72
2023/10/21 09:36:40;;;;;;;7.43;6.70;;;;;;;10.73;100.00;99424.69;6208767;28;20621;-69
2023/10/21 09:40:00;;;;;;;5.90;5.40;;;;;;;10.89;100.00;99432.72;6203692;28;20229;-73
2023/10/21 09:43:23;;;;;;;2.27;2.07;;;;;;;10.35;100.00;99438.91;6204669;28;20791;-74
2023/10/21 09:46:45;;;;;;;2.43;2.27;;;;;;;10.11;100.00;99442.47;6211235;28;20312;-73
2023/10/21 09:50:10;;;;;;;3.40;3.13;;;;;;;10.06;100.00;99444.78;6205008;28;20534;-73
2023/10/21 09:53:38;;;;;;;2.50;2.30;;;;;;;9.88;100.00;99443.25;6203085;28;20237;-73
2023/10/21 09:57:01;;;;;;;3.50;3.13;;;;;;;9.88;100.00;99454.88;6204970;28;20239;-73
2023/10/21 10:00:22;;;;;;;10.13;8.73;;;;;;;9.85;100.00;99460.56;6201418;28;20233;-73
2023/10/21 10:03:44;;;;;;;3.50;3.20;;;;;;;9.61;100.00;99456.00;6197246;28;21384;-73
2023/10/21 10:07:07;;;;;;;3.00;2.70;;;;;;;9.58;100.00;99456.31;6210109;28;20232;-73
2023/10/21 10:10:28;;;;;;;2.90;2.70;;;;;;;9.41;100.00;99470.72;6206763;28;20788;-73
2023/10/21 10:13:49;;;;;;;2.80;2.60;;;;;;;9.26;100.00;99479.59;6201332;28;20327;-73
2023/10/21 10:17:10;;;;;;;4.23;2.83;;;;;;;9.53;100.00;99480.19;6199180;28;20233;-72
2023/10/21 10:20:32;;;;;;;3.47;3.17;;;;;;;9.15;100.00;99487.94;6199540;28;20518;-73
2023/10/21 10:23:58;;;;;;;4.97;4.57;;;;;;;9.22;100.00;99484.44;6201147;28;20611;-73
2023/10/21 10:27:19;;;;;;;4.97;4.37;;;;;;;9.12;100.00;99489.09;6207803;28;20225;-73
2023/10/21 10:30:43;;;;;;;5.13;4.70;;;;;;;9.16;100.00;99495.00;6199774;28;20229;-73
2023/10/21 10:34:08;;;;;;;5.73;4.40;;;;;;;9.12;100.00;99499.00;6201414;28;20233;-73
2023/10/21 10:37:33;;;;;;;4.83;4.33;;;;;;;9.24;100.00;99501.25;6203544;28;20229;-73
2023/10/21 10:41:06;;;;;;;4.47;4.07;;;;;;;9.37;100.00;99514.25;6207323;28;20234;-73
2023/10/21 10:44:27;;;;;;;6.10;5.57;;;;;;;9.29;100.00;99509.69;6207517;28;20325;-73
2023/10/21 10:47:48;;;;;;;5.37;4.87;;;;;;;9.18;100.00;99523.41;6201421;28;20225;-74
2023/10/21 10:51:13;;;;;;;6.43;5.83;;;;;;;9.17;100.00;99532.50;6207595;28;20245;-73
2023/10/21 10:54:35;;;;;;;5.37;4.97;;;;;;;9.17;100.00;99539.72;6197447;28;20229;-73
2023/10/21 10:57:59;;;;;;;5.43;4.93;;;;;;;9.06;100.00;99539.97;6198515;28;20250;-72
2023/10/21 11:01:25;;;;;;;5.93;5.43;;;;;;;9.15;100.00;99542.56;6201233;28;20298;-73
2023/10/21 11:04:49;;;;;;;6.87;6.20;;;;;;;9.04;100.00;99540.13;6200227;28;20249;-72
2023/10/21 11:08:09;;;;;;;6.80;5.67;;;;;;;9.11;100.00;99551.09;6203823;28;20233;-71
2023/10/21 11:11:45;;;;;;;5.30;4.83;;;;;;;9.18;100.00;99547.59;6198136;28;20283;-73
2023/10/21 11:15:08;;;;;;;7.30;6.60;;;;;;;9.16;100.00;99546.91;6202440;28;20609;-74
2023/10/21 11:18:30;;;;;;;6.70;6.03;;;;;;;9.37;100.00;99551.91;6202478;28;20252;-73
2023/10/21 11:21:51;;;;;;;5.73;5.23;;;;;;;9.44;100.00;99556.50;6203554;28;20234;-71
2023/10/21 11:25:12;;;;;;;5.77;5.27;;;;;;;9.49;100.00;99562.22;6197421;28;20654;-69
2023/10/21 11:28:36;;;;;;;6.67;6.10;;;;;;;9.38;100.00;99567.91;6213353;28;20229;-70
2023/10/21 11:31:58;;;;;;;5.90;5.13;;;;;;;9.48;100.00;99565.91;6211115;28;20241;-68
2023/10/21 11:35:19;;;;;;;5.97;5.40;;;;;;;9.50;100.00;99565.75;6210213;28;20229;-70
2023/10/21 11:38:40;;;;;;;6.97;6.37;;;;;;;9.50;100.00;99580.06;6213890;28;20233;-69
2023/10/21 11:42:01;;;;;;;5.53;5.03;;;;;;;9.54;100.00;99575.19;6199361;28;20272;-70
2023/10/21 11:45:22;;;;;;;6.83;6.03;;;;;;;9.59;100.00;99584.47;6204487;28;20602;-70
2023/10/21 11:48:44;;;;;;;5.87;5.37;;;;;;;9.48;100.00;99587.44;6197799;28;20236;-69
2023/10/21 11:52:09;;;;;;;6.23;4.87;;;;;;;9.53;100.00;99582.41;6200145;28;20225;-69
2023/10/21 12:11:05;;;;;;;6.93;5.77;;;;;;;9.91;100.00;99590.97;6195044;28;20233;-68
2023/10/21 12:14:57;;;;;;;5.10;4.70;;;;;;;10.08;100.00;99596.22;6195466;28;20217;-69
2023/10/21 12:36:42;;;;;;;6.83;4.80;;;;;;;11.18;100.00;99615.53;6194099;28;20225;-69
2023/10/21 12:40:30;;;;;;;6.47;5.97;;;;;;;11.26;100.00;99613.66;6212270;28;20225;-68
2023/10/21 12:43:52;;;;;;;5.50;5.00;;;;;;;10.67;100.00;99635.59;6207562;28;20319;-69
2023/10/21 12:47:13;;;;;;;5.17;4.70;;;;;;;10.77;100.00;99646.22;6196902;28;20229;-68
2023/10/21 12:50:34;;;;;;;6.00;5.43;;;;;;;10.54;100.00;99653.25;6198997;28;20217;-70
2023/10/21 12:53:55;;;;;;;5.53;5.13;;;;;;;10.56;100.00;99651.22;6198232;28;20233;-69
2023/10/21 12:57:17;;;;;;;5.83;5.10;;;;;;;10.35;100.00;99667.88;6197207;28;20233;-68
2023/10/21 13:00:43;;;;;;;6.97;6.37;;;;;;;10.53;100.00;99673.13;6197540;28;20237;-70
2023/10/21 13:04:04;;;;;;;5.70;5.20;;;;;;;10.69;100.00;99671.31;6202510;28;20542;-69
2023/10/21 13:07:25;;;;;;;6.17;5.03;;;;;;;11.47;100.00;99677.88;6200072;28;20225;-69
2023/10/21 13:10:47;;;;;;;6.57;6.00;;;;;;;12.59;100.00;99676.63;6199701;28;20249;-70
2023/10/21 13:14:09;;;;;;;5.57;5.00;;;;;;;12.82;100.00;99676.63;6196818;28;20229;-70
2023/10/21 13:17:30;;;;;;;5.33;4.83;;;;;;;12.13;100.00;99688.34;6202312;28;20229;-69
2023/10/21 13:20:52;;;;;;;5.87;5.30;;;;;;;11.92;100.00;99694.34;6202306;28;20222;-70
2023/10/21 13:24:13;;;;;;;5.97;4.97;;;;;;;11.49;100.00;99691.19;6196427;28;20599;-70
2023/10/21 13:27:34;;;;;;;5.00;4.60;;;;;;;11.24;100.00;99693.91;6201486;28;20237;-69
2023/10/21 13:30:57;;;;;;;5.13;4.73;;;;;;;11.48;100.00;99703.84;6196235;28;20599;-70
2023/10/21 13:34:17;;;;;;;5.40;4.90;;;;;;;11.84;100.00;99705.16;6194436;28;20245;-68
2023/10/21 13:37:40;;;;;;;7.30;6.57;;;;;;;11.68;100.00;99707.06;6203602;28;20238;-70
2023/10/21 13:41:02;;;;;;;5.37;4.93;;;;;;;11.58;100.00;99711.75;6203900;28;20241;-71
2023/10/21 13:44:23;;;;;;;5.90;5.40;;;;;;;11.36;100.00;99709.75;6202337;28;20241;-70
2023/10/21 13:47:45;;;;;;;7.17;6.40;;;;;;;11.36;100.00;99702.50;6197296;28;20233;-69
2023/10/21 13:51:08;;;;;;;7.07;5.70;;;;;;;11.54;100.00;99702.31;6201965;28;20233;-69
2023/10/21 13:54:29;;;;;;;6.17;5.57;;;;;;;11.50;100.00;99709.06;6197220;28;22349;-70
2023/10/21 13:57:50;;;;;;;5.93;5.10;;;;;;;11.58;100.00;99714.44;6198079;28;20611;-69
2023/10/21 14:01:12;;;;;;;6.00;5.50;;;;;;;11.55;100.00;99718.34;6201450;28;20229;-70
2023/10/21 14:04:34;;;;;;;6.73;6.03;;;;;;;11.57;100.00;99710.06;6201732;28;20234;-70
2023/10/21 14:07:55;;;;;;;8.53;7.77;;;;;;;11.67;100.00;99727.81;6198631;28;20225;-70
2023/10/21 14:11:16;;;;;;;7.90;7.20;;;;;;;11.71;100.00;99725.59;6192990;28;20501;-70
2023/10/21 14:14:38;;;;;;;6.43;5.83;;;;;;;11.77;100.00;99730.31;6199787;28;20305;-69
2023/10/21 14:18:00;;;;;;;6.17;5.13;;;;;;;11.91;100.00;99724.22;6203476;28;20228;-69
2023/10/21 14:21:22;;;;;;;6.30;5.70;;;;;;;12.69;100.00;99730.47;6202750;28;20229;-70
2023/10/21 14:24:43;;;;;;;6.83;6.13;;;;;;;16.33;100.00;99729.19;6198290;28;20232;-70
2023/10/21 14:28:09;;;;;;;5.13;4.73;;;;;;;18.17;100.00;99727.63;6195269;28;21896;-68
2023/10/21 14:31:30;;;;;;;6.00;5.40;;;;;;;18.93;100.00;99720.47;6199170;28;20237;-72
2023/10/21 14:34:53;;;;;;;5.47;5.07;;;;;;;18.04;100.00;99728.53;6204146;28;20229;-72
2023/10/21 14:38:16;;;;;;;5.40;4.90;;;;;;;18.27;100.00;99717.94;6203603;28;20615;-71
2023/10/21 14:41:37;;;;;;;4.67;4.27;;;;;;;17.48;100.00;99728.06;6203806;28;20221;-72
2023/10/21 14:44:58;;;;;;;5.50;5.00;;;;;;;15.25;100.00;99737.94;6204124;28;20222;-72
2023/10/21 14:48:19;;;;;;;5.67;5.17;;;;;;;14.28;100.00;99753.69;6202626;28;20233;-71
2023/10/21 14:51:40;;;;;;;5.77;5.27;;;;;;;13.73;100.00;99755.91;6204670;28;20316;-71
2023/10/21 14:55:05;;;;;;;5.03;4.63;;;;;;;13.27;100.00;99763.25;6200660;28;20257;-72
2023/10/21 14:58:26;;;;;;;5.47;4.90;;;;;;;12.99;100.00;99767.47;6208459;28;20237;-72
2023/10/21 15:01:47;;;;;;;5.20;4.77;;;;;;;12.71;100.00;99775.25;6211105;28;20229;-71
2023/10/21 15:05:08;;;;;;;6.03;5.43;;;;;;;12.52;100.00;99767.56;6206895;28;20230;-72
2023/10/21 15:08:30;;;;;;;6.67;6.13;;;;;;;12.36;100.00;99777.59;6211240;28;20673;-71
2023/10/21 15:11:52;;;;;;;7.00;6.40;;;;;;;12.28;100.00;99783.88;6210103;28;20342;-70
2023/10/21 15:15:15;;;;;;;6.00;5.50;;;;;;;12.21;100.00;99795.53;6207765;28;20336;-71
2023/10/21 15:18:35;;;;;;;6.00;5.40;;;;;;;12.23;100.00;99793.50;6210985;28;20253;-71
2023/10/21 15:21:56;;;;;;;7.33;6.63;;;;;;;12.22;100.00;99797.25;6207217;28;20236;-71
2023/10/21 15:25:18;;;;;;;6.70;6.03;;;;;;;12.14;100.00;99802.66;6209588;28;20324;-73
2023/10/21 15:28:40;;;;;;;7.40;6.60;;;;;;;12.03;100.00;99804.72;6209194;28;20225;-72
2023/10/21 15:32:01;;;;;;;6.73;6.23;;;;;;;11.98;100.00;99809.78;6208476;28;20320;-72
2023/10/21 15:35:22;;;;;;;7.40;6.70;;;;;;;11.98;100.00;99815.19;6204619;28;20228;-71
2023/10/21 15:38:45;;;;;;;7.00;6.40;;;;;;;11.92;100.00;99815.88;6210323;28;20221;-71
2023/10/21 15:42:07;;;;;;;8.30;7.67;;;;;;;11.93;100.00;99824.81;6196730;28;20244;-71
2023/10/21 15:45:29;;;;;;;8.73;7.87;;;;;;;11.87;100.00;99818.22;6208152;28;20233;-71
2023/10/21 15:48:51;;;;;;;8.30;7.60;;;;;;;11.84;100.00;99831.22;6202190;28;20228;-72
2023/10/21 15:52:11;;;;;;;7.13;6.53;;;;;;;11.78;100.00;99835.47;6204147;28;20265;-71
2023/10/21 15:55:32;;;;;;;7.40;5.97;;;;;;;11.75;100.00;99838.50;6201191;28;20667;-73
2023/10/21 15:58:54;;;;;;;7.60;6.97;;;;;;;11.71;100.00;99847.09;6202335;28;20606;-71
2023/10/21 16:02:16;;;;;;;7.40;6.73;;;;;;;11.69;100.00;99849.97;6202618;28;20233;-71
2023/10/21 16:05:37;;;;;;;8.23;7.43;;;;;;;11.63;100.00;99847.91;6199882;28;20229;-72
2023/10/21 16:08:58;;;;;;;8.03;7.23;;;;;;;11.66;100.00;99854.84;6201171;28;20229;-72
2023/10/21 16:12:19;;;;;;;8.67;7.87;;;;;;;11.57;100.00;99866.63;6208651;28;20229;-72
2023/10/21 16:15:41;;;;;;;8.00;7.07;;;;;;;11.54;100.00;99858.84;6209281;28;20614;-72
2023/10/21 16:19:03;;;;;;;8.13;7.33;;;;;;;11.50;100.00;99879.94;6201099;28;20279;-72
2023/10/21 16:22:24;;;;;;;8.53;7.87;;;;;;;11.47;100.00;99877.59;6201003;28;20359;-71